IBE90PT LPMA-GCXO
Flight info
| Callsign | IBE90PT |
|---|---|
| Flight time | 0h 46m |
| Altitude | 31000 |
| Route | GOSG1W GOSGA DCT ORTIS ORTI1L |
| Aircraft | A320/M-SDE3FGHIRWY/LB1 |
Departure
| Time | 2026-05-04 21:04 |
|---|---|
| Airport | Cristiano Ronaldo International Airport (LPMA) |
Arrival
| Time | 2026-05-04 21:51 |
|---|---|
| Airport | Tenerife Norte-Ciudad de La Laguna Airport (GCXO) |
| Time | Latitude | Longitude | Altitude | Speed | Heading |
|---|---|---|---|---|---|
| 2026-05-04 19:25 | 32.69309 | -16.77731 | 177 ft | 0 kts | 138° |
| 2026-05-04 20:51 | 32.69310 | -16.77731 | 176 ft | 1 kts | 138° |
| 2026-05-04 20:51 | 32.69325 | -16.77747 | 176 ft | 4 kts | 137° |
| 2026-05-04 20:51 | 32.69341 | -16.77771 | 176 ft | 4 kts | 104° |
| 2026-05-04 20:52 | 32.69339 | -16.77797 | 176 ft | 3 kts | 49° |
| 2026-05-04 20:52 | 32.69337 | -16.77800 | 176 ft | 0 kts | 47° |
| 2026-05-04 20:56 | 32.69348 | -16.77785 | 176 ft | 6 kts | 47° |
| 2026-05-04 20:56 | 32.69387 | -16.77738 | 176 ft | 8 kts | 46° |
| 2026-05-04 20:56 | 32.69422 | -16.77696 | 176 ft | 7 kts | 46° |
| 2026-05-04 20:57 | 32.69451 | -16.77661 | 176 ft | 5 kts | 47° |
| 2026-05-04 20:57 | 32.69474 | -16.77632 | 176 ft | 4 kts | 46° |
| 2026-05-04 20:57 | 32.69492 | -16.77609 | 176 ft | 3 kts | 46° |
| 2026-05-04 20:57 | 32.69513 | -16.77583 | 176 ft | 6 kts | 46° |
| 2026-05-04 20:58 | 32.69555 | -16.77531 | 176 ft | 11 kts | 46° |
| 2026-05-04 20:58 | 32.69619 | -16.77450 | 176 ft | 16 kts | 47° |
| 2026-05-04 20:58 | 32.69699 | -16.77351 | 176 ft | 16 kts | 47° |
| 2026-05-04 20:58 | 32.69772 | -16.77261 | 176 ft | 14 kts | 45° |
| 2026-05-04 20:59 | 32.69801 | -16.77226 | 176 ft | 0 kts | 46° |
| 2026-05-04 20:59 | 32.69809 | -16.77216 | 176 ft | 5 kts | 46° |
| 2026-05-04 20:59 | 32.69871 | -16.77179 | 176 ft | 14 kts | 5° |
| 2026-05-04 21:00 | 32.69953 | -16.77179 | 176 ft | 12 kts | 359° |
| 2026-05-04 21:00 | 32.70037 | -16.77157 | 176 ft | 11 kts | 38° |
| 2026-05-04 21:00 | 32.70116 | -16.77065 | 176 ft | 20 kts | 44° |
| 2026-05-04 21:00 | 32.70223 | -16.76938 | 176 ft | 23 kts | 45° |
| 2026-05-04 21:01 | 32.70343 | -16.76798 | 176 ft | 25 kts | 45° |
| 2026-05-04 21:01 | 32.70470 | -16.76649 | 176 ft | 26 kts | 45° |
| 2026-05-04 21:01 | 32.70553 | -16.76553 | 176 ft | 8 kts | 44° |
| 2026-05-04 21:01 | 32.70590 | -16.76509 | 176 ft | 7 kts | 45° |
| 2026-05-04 21:02 | 32.70630 | -16.76494 | 176 ft | 6 kts | 358° |
| 2026-05-04 21:02 | 32.70680 | -16.76476 | 176 ft | 10 kts | 40° |
| 2026-05-04 21:02 | 32.70654 | -16.76433 | 176 ft | 8 kts | 206° |
| 2026-05-04 21:02 | 32.70612 | -16.76484 | 176 ft | 7 kts | 226° |
| 2026-05-04 21:03 | 32.70609 | -16.76488 | 176 ft | 0 kts | 226° |
| 2026-05-04 21:03 | 32.70583 | -16.76518 | 176 ft | 15 kts | 224° |
| 2026-05-04 21:03 | 32.70429 | -16.76697 | 176 ft | 60 kts | 224° |
| 2026-05-04 21:04 | 32.69975 | -16.77228 | 176 ft | 121 kts | 224° |
| 2026-05-04 21:04 | 32.69253 | -16.78073 | 210 ft | 166 kts | 225° |
| 2026-05-04 21:04 | 32.68437 | -16.79042 | 797 ft | 166 kts | 224° |
| 2026-05-04 21:04 | 32.67471 | -16.79768 | 1426 ft | 169 kts | 194° |
| 2026-05-04 21:05 | 32.66268 | -16.79719 | 1914 ft | 181 kts | 163° |
| 2026-05-04 21:05 | 32.65062 | -16.79264 | 2453 ft | 187 kts | 163° |
| 2026-05-04 21:05 | 32.63786 | -16.78773 | 2877 ft | 202 kts | 163° |
| 2026-05-04 21:05 | 32.62365 | -16.78266 | 3180 ft | 221 kts | 165° |
| 2026-05-04 21:06 | 32.60857 | -16.77775 | 3837 ft | 228 kts | 167° |
| 2026-05-04 21:06 | 32.59276 | -16.77352 | 4504 ft | 238 kts | 169° |
| 2026-05-04 21:06 | 32.57628 | -16.76933 | 5215 ft | 246 kts | 169° |
| 2026-05-04 21:06 | 32.55883 | -16.76468 | 5681 ft | 268 kts | 168° |
| 2026-05-04 21:07 | 32.54043 | -16.75943 | 6458 ft | 274 kts | 167° |
| 2026-05-04 21:07 | 32.52175 | -16.75403 | 7265 ft | 279 kts | 168° |
| 2026-05-04 21:07 | 32.50272 | -16.74847 | 8082 ft | 282 kts | 168° |
| 2026-05-04 21:07 | 32.48363 | -16.74301 | 8994 ft | 283 kts | 169° |
| 2026-05-04 21:08 | 32.46467 | -16.73781 | 9885 ft | 283 kts | 171° |
| 2026-05-04 21:08 | 32.44527 | -16.73264 | 10570 ft | 292 kts | 171° |
| 2026-05-04 21:08 | 32.42475 | -16.72716 | 10895 ft | 312 kts | 171° |
| 2026-05-04 21:08 | 32.40282 | -16.72116 | 11106 ft | 336 kts | 170° |
| 2026-05-04 21:09 | 32.37959 | -16.71466 | 11561 ft | 348 kts | 170° |
| 2026-05-04 21:09 | 32.35589 | -16.70794 | 12208 ft | 353 kts | 170° |
| 2026-05-04 21:09 | 32.33182 | -16.70108 | 12889 ft | 358 kts | 170° |
| 2026-05-04 21:09 | 32.30750 | -16.69416 | 13562 ft | 362 kts | 171° |
| 2026-05-04 21:10 | 32.28286 | -16.68720 | 14208 ft | 366 kts | 171° |
| 2026-05-04 21:10 | 32.25792 | -16.68020 | 14806 ft | 370 kts | 171° |
| 2026-05-04 21:10 | 32.23312 | -16.67328 | 15414 ft | 373 kts | 171° |
| 2026-05-04 21:10 | 32.20780 | -16.66621 | 16027 ft | 376 kts | 171° |
| 2026-05-04 21:11 | 32.18224 | -16.65907 | 16639 ft | 379 kts | 171° |
| 2026-05-04 21:11 | 32.15649 | -16.65188 | 17239 ft | 382 kts | 171° |
| 2026-05-04 21:11 | 32.13054 | -16.64463 | 17836 ft | 385 kts | 171° |
| 2026-05-04 21:11 | 32.10439 | -16.63734 | 18422 ft | 388 kts | 171° |
| 2026-05-04 21:12 | 32.07795 | -16.63081 | 18908 ft | 388 kts | 176° |
| 2026-05-04 21:12 | 32.05105 | -16.62766 | 19403 ft | 389 kts | 179° |
| 2026-05-04 21:12 | 32.02399 | -16.62472 | 19892 ft | 392 kts | 178° |
| 2026-05-04 21:12 | 31.99678 | -16.62175 | 20397 ft | 394 kts | 178° |
| 2026-05-04 21:13 | 31.96974 | -16.61880 | 20892 ft | 396 kts | 178° |
| 2026-05-04 21:13 | 31.94225 | -16.61576 | 21391 ft | 398 kts | 178° |
| 2026-05-04 21:13 | 31.91457 | -16.61271 | 21861 ft | 401 kts | 178° |
| 2026-05-04 21:13 | 31.88670 | -16.60965 | 22334 ft | 403 kts | 178° |
| 2026-05-04 21:14 | 31.85871 | -16.60656 | 22805 ft | 405 kts | 178° |
| 2026-05-04 21:14 | 31.83053 | -16.60342 | 23266 ft | 408 kts | 178° |
| 2026-05-04 21:14 | 31.80219 | -16.60026 | 23708 ft | 410 kts | 178° |
| 2026-05-04 21:14 | 31.77375 | -16.59710 | 24061 ft | 413 kts | 178° |
| 2026-05-04 21:15 | 31.74495 | -16.59394 | 24380 ft | 417 kts | 178° |
| 2026-05-04 21:15 | 31.71599 | -16.59076 | 24714 ft | 419 kts | 178° |
| 2026-05-04 21:15 | 31.68725 | -16.58761 | 25045 ft | 422 kts | 178° |
| 2026-05-04 21:15 | 31.65756 | -16.58434 | 25389 ft | 425 kts | 177° |
| 2026-05-04 21:16 | 31.62845 | -16.58113 | 25718 ft | 427 kts | 177° |
| 2026-05-04 21:16 | 31.59880 | -16.57786 | 26052 ft | 429 kts | 177° |
| 2026-05-04 21:16 | 31.56895 | -16.57462 | 26385 ft | 432 kts | 177° |
| 2026-05-04 21:16 | 31.53896 | -16.57137 | 26717 ft | 434 kts | 177° |
| 2026-05-04 21:17 | 31.50881 | -16.56811 | 27057 ft | 436 kts | 178° |
| 2026-05-04 21:17 | 31.47857 | -16.56484 | 27430 ft | 437 kts | 178° |
| 2026-05-04 21:17 | 31.44828 | -16.56155 | 27768 ft | 439 kts | 178° |
| 2026-05-04 21:17 | 31.41780 | -16.55821 | 28085 ft | 441 kts | 178° |
| 2026-05-04 21:18 | 31.38722 | -16.55484 | 28393 ft | 443 kts | 178° |
| 2026-05-04 21:18 | 31.35647 | -16.55157 | 28693 ft | 444 kts | 178° |
| 2026-05-04 21:18 | 31.32556 | -16.54840 | 28980 ft | 446 kts | 178° |
| 2026-05-04 21:18 | 31.29459 | -16.54527 | 29263 ft | 448 kts | 178° |
| 2026-05-04 21:19 | 31.26340 | -16.54214 | 29543 ft | 450 kts | 178° |
| 2026-05-04 21:19 | 31.23219 | -16.53898 | 29870 ft | 450 kts | 179° |
| 2026-05-04 21:19 | 31.20106 | -16.53580 | 30275 ft | 449 kts | 179° |
| 2026-05-04 21:19 | 31.17035 | -16.53263 | 30654 ft | 447 kts | 179° |
| 2026-05-04 21:20 | 31.13944 | -16.52944 | 30996 ft | 446 kts | 179° |
| 2026-05-04 21:20 | 31.10858 | -16.52626 | 31106 ft | 444 kts | 179° |
| 2026-05-04 21:20 | 31.04756 | -16.51996 | 31130 ft | 438 kts | 179° |
| 2026-05-04 21:21 | 30.98688 | -16.51372 | 31125 ft | 438 kts | 180° |
| 2026-05-04 21:21 | 30.92623 | -16.50747 | 31133 ft | 437 kts | 180° |
| 2026-05-04 21:22 | 30.86570 | -16.50130 | 31133 ft | 436 kts | 180° |
| 2026-05-04 21:22 | 30.80559 | -16.49524 | 31131 ft | 436 kts | 180° |
| 2026-05-04 21:23 | 30.74515 | -16.48911 | 31128 ft | 436 kts | 180° |
| 2026-05-04 21:23 | 30.68471 | -16.48285 | 31118 ft | 436 kts | 181° |
| 2026-05-04 21:24 | 30.62439 | -16.47669 | 31126 ft | 435 kts | 181° |
| 2026-05-04 21:24 | 30.56411 | -16.47060 | 31126 ft | 434 kts | 181° |
| 2026-05-04 21:25 | 30.50394 | -16.46454 | 31130 ft | 434 kts | 181° |
| 2026-05-04 21:25 | 30.44416 | -16.45859 | 31104 ft | 434 kts | 182° |
| 2026-05-04 21:26 | 30.38409 | -16.45249 | 31125 ft | 433 kts | 182° |
| 2026-05-04 21:26 | 30.32422 | -16.44641 | 31130 ft | 432 kts | 182° |
| 2026-05-04 21:27 | 30.26448 | -16.44045 | 31133 ft | 431 kts | 182° |
| 2026-05-04 21:27 | 30.20478 | -16.43450 | 31125 ft | 430 kts | 182° |
| 2026-05-04 21:28 | 30.14547 | -16.42843 | 31121 ft | 430 kts | 182° |
| 2026-05-04 21:28 | 30.08595 | -16.42243 | 31121 ft | 429 kts | 182° |
| 2026-05-04 21:29 | 30.02650 | -16.41655 | 31120 ft | 429 kts | 182° |
| 2026-05-04 21:29 | 29.96717 | -16.41055 | 31120 ft | 428 kts | 182° |
| 2026-05-04 21:30 | 29.90776 | -16.40452 | 31089 ft | 428 kts | 182° |
| 2026-05-04 21:30 | 29.84873 | -16.39862 | 31098 ft | 428 kts | 182° |
| 2026-05-04 21:31 | 29.75963 | -16.38974 | 31108 ft | 429 kts | 182° |
| 2026-05-04 21:32 | 29.70019 | -16.38381 | 31110 ft | 429 kts | 182° |
| 2026-05-04 21:32 | 29.64077 | -16.37795 | 31112 ft | 429 kts | 182° |
| 2026-05-04 21:33 | 29.58126 | -16.37203 | 31110 ft | 429 kts | 182° |
| 2026-05-04 21:33 | 29.55155 | -16.36903 | 30510 ft | 431 kts | 182° |
| 2026-05-04 21:33 | 29.52176 | -16.36605 | 29294 ft | 439 kts | 182° |
| 2026-05-04 21:33 | 29.49143 | -16.36301 | 28606 ft | 434 kts | 182° |
| 2026-05-04 21:34 | 29.46157 | -16.35997 | 28005 ft | 428 kts | 182° |
| 2026-05-04 21:34 | 29.43208 | -16.35697 | 27382 ft | 423 kts | 182° |
| 2026-05-04 21:34 | 29.40295 | -16.35404 | 26767 ft | 419 kts | 182° |
| 2026-05-04 21:34 | 29.37405 | -16.35117 | 26145 ft | 414 kts | 182° |
| 2026-05-04 21:35 | 29.34548 | -16.34836 | 25568 ft | 410 kts | 183° |
| 2026-05-04 21:35 | 29.31717 | -16.34556 | 24971 ft | 406 kts | 183° |
| 2026-05-04 21:35 | 29.28915 | -16.34279 | 24399 ft | 403 kts | 183° |
| 2026-05-04 21:35 | 29.26131 | -16.34005 | 23825 ft | 400 kts | 183° |
| 2026-05-04 21:36 | 29.24301 | -16.33824 | 23417 ft | 397 kts | 183° |
| 2026-05-04 21:36 | 29.21562 | -16.33551 | 22841 ft | 392 kts | 183° |
| 2026-05-04 21:36 | 29.18863 | -16.33280 | 22346 ft | 387 kts | 183° |
| 2026-05-04 21:36 | 29.15344 | -16.32929 | 21692 ft | 380 kts | 183° |
| 2026-05-04 21:37 | 29.12732 | -16.32670 | 21234 ft | 374 kts | 182° |
| 2026-05-04 21:37 | 29.10149 | -16.32416 | 20774 ft | 370 kts | 182° |
| 2026-05-04 21:37 | 29.08425 | -16.32246 | 20468 ft | 367 kts | 182° |
| 2026-05-04 21:37 | 29.05934 | -16.32000 | 20039 ft | 362 kts | 182° |
| 2026-05-04 21:38 | 29.03432 | -16.31754 | 19605 ft | 359 kts | 182° |
| 2026-05-04 21:38 | 29.00960 | -16.31513 | 19171 ft | 356 kts | 182° |
| 2026-05-04 21:38 | 28.98500 | -16.31276 | 18735 ft | 353 kts | 182° |
| 2026-05-04 21:38 | 28.96058 | -16.31039 | 18266 ft | 352 kts | 182° |
| 2026-05-04 21:39 | 28.93629 | -16.30801 | 17790 ft | 349 kts | 181° |
| 2026-05-04 21:39 | 28.91225 | -16.30563 | 17334 ft | 346 kts | 181° |
| 2026-05-04 21:39 | 28.88832 | -16.30325 | 16882 ft | 344 kts | 181° |
| 2026-05-04 21:39 | 28.86489 | -16.30093 | 16452 ft | 341 kts | 181° |
| 2026-05-04 21:40 | 28.84168 | -16.29859 | 16354 ft | 328 kts | 181° |
| 2026-05-04 21:40 | 28.81922 | -16.29632 | 16064 ft | 322 kts | 181° |
| 2026-05-04 21:40 | 28.79693 | -16.29412 | 15683 ft | 320 kts | 181° |
| 2026-05-04 21:40 | 28.77483 | -16.29199 | 15295 ft | 318 kts | 182° |
| 2026-05-04 21:41 | 28.75277 | -16.28990 | 14902 ft | 317 kts | 181° |
| 2026-05-04 21:41 | 28.73086 | -16.28780 | 14517 ft | 316 kts | 181° |
| 2026-05-04 21:41 | 28.70900 | -16.28566 | 14127 ft | 315 kts | 181° |
| 2026-05-04 21:41 | 28.68715 | -16.28353 | 13709 ft | 314 kts | 181° |
| 2026-05-04 21:42 | 28.66536 | -16.28141 | 13237 ft | 315 kts | 181° |
| 2026-05-04 21:42 | 28.64392 | -16.27931 | 12867 ft | 312 kts | 180° |
| 2026-05-04 21:42 | 28.62247 | -16.27719 | 12265 ft | 308 kts | 180° |
| 2026-05-04 21:42 | 28.60127 | -16.27507 | 11703 ft | 300 kts | 180° |
| 2026-05-04 21:43 | 28.58119 | -16.27303 | 11522 ft | 281 kts | 180° |
| 2026-05-04 21:43 | 28.56217 | -16.27091 | 11265 ft | 269 kts | 175° |
| 2026-05-04 21:43 | 28.54487 | -16.26359 | 11009 ft | 266 kts | 152° |
| 2026-05-04 21:43 | 28.53163 | -16.24926 | 10766 ft | 265 kts | 128° |
| 2026-05-04 21:44 | 28.52375 | -16.23025 | 10539 ft | 267 kts | 115° |
| 2026-05-04 21:44 | 28.51722 | -16.21055 | 10304 ft | 265 kts | 114° |
| 2026-05-04 21:44 | 28.51081 | -16.19112 | 10082 ft | 260 kts | 114° |
| 2026-05-04 21:44 | 28.50452 | -16.17215 | 9952 ft | 252 kts | 114° |
| 2026-05-04 21:45 | 28.49835 | -16.15358 | 9662 ft | 252 kts | 114° |
| 2026-05-04 21:45 | 28.49217 | -16.13515 | 9315 ft | 254 kts | 114° |
| 2026-05-04 21:45 | 28.48582 | -16.11631 | 8931 ft | 257 kts | 114° |
| 2026-05-04 21:45 | 28.47748 | -16.09852 | 8539 ft | 255 kts | 135° |
| 2026-05-04 21:46 | 28.46345 | -16.08680 | 8174 ft | 250 kts | 161° |
| 2026-05-04 21:46 | 28.44662 | -16.08337 | 7772 ft | 247 kts | 187° |
| 2026-05-04 21:46 | 28.43015 | -16.08814 | 7363 ft | 246 kts | 202° |
| 2026-05-04 21:46 | 28.41544 | -16.09799 | 6878 ft | 250 kts | 230° |
| 2026-05-04 21:47 | 28.40869 | -16.11570 | 6530 ft | 247 kts | 268° |
| 2026-05-04 21:47 | 28.41155 | -16.13480 | 6164 ft | 247 kts | 287° |
| 2026-05-04 21:47 | 28.41734 | -16.15303 | 5640 ft | 245 kts | 292° |
| 2026-05-04 21:47 | 28.42385 | -16.17081 | 5134 ft | 243 kts | 294° |
| 2026-05-04 21:48 | 28.43026 | -16.18808 | 4699 ft | 238 kts | 295° |
| 2026-05-04 21:48 | 28.43660 | -16.20521 | 4290 ft | 232 kts | 296° |
| 2026-05-04 21:48 | 28.44274 | -16.22188 | 3956 ft | 225 kts | 295° |
| 2026-05-04 21:48 | 28.44830 | -16.23822 | 3662 ft | 218 kts | 294° |
| 2026-05-04 21:49 | 28.45357 | -16.25404 | 3386 ft | 211 kts | 294° |
| 2026-05-04 21:49 | 28.45865 | -16.26931 | 3130 ft | 201 kts | 294° |
| 2026-05-04 21:49 | 28.46346 | -16.28378 | 2850 ft | 190 kts | 294° |
| 2026-05-04 21:49 | 28.46794 | -16.29726 | 2613 ft | 174 kts | 295° |
| 2026-05-04 21:50 | 28.47210 | -16.30980 | 2380 ft | 166 kts | 295° |
| 2026-05-04 21:50 | 28.47613 | -16.32195 | 2144 ft | 162 kts | 295° |
| 2026-05-04 21:50 | 28.48008 | -16.33348 | 2044 ft | 143 kts | 291° |
| 2026-05-04 21:50 | 28.48292 | -16.34228 | 2062 ft | 94 kts | 291° |
| 2026-05-04 21:51 | 28.48461 | -16.34736 | 2069 ft | 50 kts | 291° |
| 2026-05-04 21:51 | 28.48564 | -16.35049 | 2075 ft | 27 kts | 290° |
| 2026-05-04 21:51 | 28.48620 | -16.35185 | 2078 ft | 17 kts | 304° |
| 2026-05-04 21:51 | 28.48688 | -16.35290 | 2081 ft | 14 kts | 307° |
| 2026-05-04 21:52 | 28.48737 | -16.35324 | 2082 ft | 6 kts | 2° |
| 2026-05-04 21:52 | 28.48759 | -16.35291 | 2081 ft | 5 kts | 95° |
| 2026-05-04 21:52 | 28.48754 | -16.35274 | 2081 ft | 0 kts | 110° |
| 2026-05-04 21:53 | 28.48753 | -16.35274 | 2081 ft | 0 kts | 110° |
| 2026-05-04 21:53 | 28.48753 | -16.35272 | 2081 ft | 1 kts | 110° |
| 2026-05-04 21:53 | 28.48742 | -16.35239 | 2080 ft | 8 kts | 110° |
| 2026-05-04 21:54 | 28.48718 | -16.35165 | 2077 ft | 12 kts | 110° |
| 2026-05-04 21:54 | 28.48686 | -16.35067 | 2075 ft | 15 kts | 110° |
| 2026-05-04 21:54 | 28.48646 | -16.34946 | 2073 ft | 18 kts | 110° |
| 2026-05-04 21:54 | 28.48597 | -16.34802 | 2071 ft | 21 kts | 110° |
| 2026-05-04 21:55 | 28.48561 | -16.34691 | 2069 ft | 13 kts | 110° |
| 2026-05-04 21:55 | 28.48537 | -16.34616 | 2067 ft | 7 kts | 110° |
| 2026-05-04 21:55 | 28.48523 | -16.34572 | 2067 ft | 6 kts | 110° |
| 2026-05-04 21:55 | 28.48509 | -16.34531 | 2066 ft | 6 kts | 110° |
| 2026-05-04 21:56 | 28.48510 | -16.34501 | 2066 ft | 3 kts | 33° |
| 2026-05-04 21:56 | 28.48528 | -16.34480 | 2065 ft | 4 kts | 46° |
| 2026-05-04 21:56 | 28.48557 | -16.34463 | 2065 ft | 5 kts | 15° |
| 2026-05-04 21:56 | 28.48593 | -16.34461 | 2065 ft | 5 kts | 344° |
| 2026-05-04 21:57 | 28.48625 | -16.34463 | 2066 ft | 5 kts | 13° |
| 2026-05-04 21:57 | 28.48630 | -16.34461 | 2066 ft | 0 kts | 15° |